Time;durP1;ratioP1;P1;durP2;ratioP2;P2;SDS_P1;SDS_P2;PMS_P1;PMS_P2;Temp;Humidity;BMP_temperature;BMP_pressure;BME280_temperature;BME280_humidity;BME280_pressure;Samples;Min_cycle;Max_cycle;Signal;HPM_P1;HPM_P2
2021/06/29 00:00:28;;;;;;;4.00;3.45;;;23.50;60.40;;;;;;5022365;28;20034;-82
2021/06/29 00:03:00;;;;;;;6.25;3.53;;;23.50;60.60;;;;;;5023995;28;20050;-82
2021/06/29 00:05:26;;;;;;;5.00;3.60;;;23.50;60.80;;;;;;5027492;28;20029;-82
2021/06/29 00:07:52;;;;;;;5.85;3.65;;;23.50;60.90;;;;;;5021174;28;20033;-83
2021/06/29 00:10:17;;;;;;;4.47;3.80;;;23.60;61.10;;;;;;5019702;28;20030;-83
2021/06/29 00:12:43;;;;;;;3.40;3.10;;;23.70;61.20;;;;;;5021132;28;20037;-83
2021/06/29 00:15:09;;;;;;;9.60;4.05;;;23.70;61.20;;;;;;5021841;28;20045;-82
2021/06/29 00:17:35;;;;;;;5.45;3.35;;;23.80;61.10;;;;;;5010147;28;20504;-83
2021/06/29 00:20:01;;;;;;;3.17;2.97;;;23.80;60.90;;;;;;5027789;28;20034;-83
2021/06/29 00:22:27;;;;;;;3.75;2.67;;;23.90;60.70;;;;;;5016832;28;20079;-83
2021/06/29 00:24:53;;;;;;;4.07;3.08;;;24.00;60.30;;;;;;5013908;28;20054;-82
2021/06/29 00:27:19;;;;;;;5.25;3.08;;;24.20;60.10;;;;;;5022194;28;20038;-83
2021/06/29 00:29:44;;;;;;;5.60;3.15;;;24.20;60.50;;;;;;5026412;28;20363;-83
2021/06/29 00:32:10;;;;;;;5.22;2.97;;;24.20;59.90;;;;;;5013619;28;20040;-83
2021/06/29 00:34:36;;;;;;;4.18;3.05;;;24.20;59.90;;;;;;5028809;28;20063;-83
2021/06/29 00:37:02;;;;;;;8.07;3.53;;;24.20;59.80;;;;;;5011547;28;20048;-83
2021/06/29 00:39:27;;;;;;;5.22;3.33;;;24.20;59.60;;;;;;5007305;28;20087;-83
2021/06/29 00:41:53;;;;;;;3.80;2.88;;;24.20;59.40;;;;;;5030086;28;20044;-83
2021/06/29 00:44:21;;;;;;;5.45;3.15;;;24.20;59.30;;;;;;5029203;28;20044;-82
2021/06/29 00:46:48;;;;;;;3.42;2.90;;;24.20;59.30;;;;;;5011260;28;20416;-82
2021/06/29 00:49:14;;;;;;;3.70;2.63;;;24.30;59.20;;;;;;5028413;28;20026;-83
2021/06/29 00:51:40;;;;;;;3.70;2.70;;;24.20;59.20;;;;;;5027802;28;20036;-83
2021/06/29 00:54:05;;;;;;;4.07;2.67;;;24.20;59.20;;;;;;5050217;28;20021;-82
2021/06/29 00:56:32;;;;;;;3.38;2.58;;;24.30;59.10;;;;;;5024861;28;20128;-82
2021/06/29 00:58:58;;;;;;;3.55;2.58;;;24.20;59.10;;;;;;5028179;28;20553;-83
2021/06/29 01:01:23;;;;;;;6.85;2.38;;;24.20;59.10;;;;;;5015196;28;20032;-83
2021/06/29 01:03:49;;;;;;;6.15;2.83;;;24.30;59.00;;;;;;5026166;28;20060;-83
2021/06/29 01:06:16;;;;;;;6.10;3.70;;;24.30;58.80;;;;;;5010972;28;20026;-83
2021/06/29 01:08:42;;;;;;;6.00;3.38;;;24.20;58.80;;;;;;5034463;28;20025;-83
2021/06/29 01:11:14;;;;;;;4.75;2.75;;;24.20;58.90;;;;;;5019730;28;20051;-83
2021/06/29 01:13:43;;;;;;;4.60;2.90;;;24.10;59.10;;;;;;5030970;28;20039;-82
2021/06/29 01:16:09;;;;;;;4.10;2.55;;;24.10;59.10;;;;;;5029350;28;20044;-82
2021/06/29 01:18:36;;;;;;;3.45;2.92;;;24.10;59.20;;;;;;5006448;28;20022;-83
2021/06/29 01:21:03;;;;;;;3.70;2.50;;;24.10;59.00;;;;;;5016513;28;20041;-83
2021/06/29 01:23:29;;;;;;;4.43;2.97;;;24.10;58.90;;;;;;5035894;28;20072;-82
2021/06/29 01:26:14;;;;;;;5.82;3.38;;;24.10;59.00;;;;;;5034530;28;20054;-83
2021/06/29 01:31:17;;;;;;;4.40;3.03;;;24.10;59.20;;;;;;5024723;28;20065;-82
2021/06/29 01:33:43;;;;;;;6.28;2.78;;;24.10;59.30;;;;;;5033725;28;20025;-82
2021/06/29 01:36:12;;;;;;;6.07;3.30;;;24.00;59.30;;;;;;5021696;28;20033;-82
2021/06/29 01:38:38;;;;;;;5.72;2.97;;;24.10;59.60;;;;;;5021435;28;20078;-83
2021/06/29 01:41:04;;;;;;;3.67;2.70;;;24.10;59.60;;;;;;5030649;28;20025;-83
2021/06/29 01:43:32;;;;;;;4.68;2.53;;;24.10;59.70;;;;;;5040244;28;20063;-82
2021/06/29 01:45:58;;;;;;;3.47;2.90;;;24.10;59.50;;;;;;5032024;28;20422;-83
2021/06/29 01:48:25;;;;;;;4.55;2.40;;;24.10;59.30;;;;;;5023984;28;20139;-83
2021/06/29 01:50:53;;;;;;;4.55;2.80;;;24.20;59.30;;;;;;5037541;28;20470;-83
2021/06/29 01:53:20;;;;;;;4.90;2.13;;;24.20;59.00;;;;;;5034844;28;20482;-83
2021/06/29 01:55:46;;;;;;;7.57;3.30;;;24.20;58.90;;;;;;5033333;28;20056;-83
2021/06/29 01:58:14;;;;;;;3.70;2.90;;;24.20;58.90;;;;;;5029140;28;20062;-83
2021/06/29 02:00:41;;;;;;;3.90;2.60;;;24.20;59.00;;;;;;5019046;28;20021;-83
2021/06/29 02:03:06;;;;;;;3.72;2.78;;;24.10;58.80;;;;;;5030218;28;20128;-83
2021/06/29 02:05:32;;;;;;;5.40;2.58;;;24.10;59.10;;;;;;5040765;28;20111;-83
2021/06/29 02:07:58;;;;;;;3.25;2.30;;;24.00;59.20;;;;;;5041840;28;20071;-83
2021/06/29 02:10:24;;;;;;;7.75;2.20;;;24.00;58.90;;;;;;5042193;28;20171;-82
2021/06/29 02:12:50;;;;;;;3.33;2.30;;;23.90;58.90;;;;;;5041967;28;20047;-82
2021/06/29 02:15:16;;;;;;;4.00;2.08;;;23.90;58.80;;;;;;5044610;28;20095;-83
2021/06/29 02:17:42;;;;;;;4.18;2.55;;;24.00;59.00;;;;;;5033731;28;20051;-82
2021/06/29 02:20:09;;;;;;;3.65;2.42;;;24.00;59.20;;;;;;5045067;28;20033;-83
2021/06/29 02:22:35;;;;;;;5.50;2.72;;;24.00;59.40;;;;;;5050361;28;20105;-82
2021/06/29 02:25:01;;;;;;;2.85;2.30;;;24.00;59.60;;;;;;5029585;28;20025;-83
2021/06/29 02:27:29;;;;;;;3.15;2.58;;;24.00;59.70;;;;;;5043244;28;20022;-83
2021/06/29 02:29:56;;;;;;;3.95;2.30;;;23.90;59.70;;;;;;5050139;28;20036;-82
2021/06/29 02:32:23;;;;;;;5.57;2.75;;;23.90;59.60;;;;;;5041470;28;20031;-82
2021/06/29 02:34:49;;;;;;;3.00;2.28;;;23.90;59.70;;;;;;5028243;28;20030;-83
2021/06/29 02:37:15;;;;;;;7.30;2.50;;;23.90;59.90;;;;;;5041738;28;20032;-83
2021/06/29 02:39:40;;;;;;;3.88;2.45;;;23.90;59.80;;;;;;5035157;28;20032;-82
2021/06/29 02:42:07;;;;;;;4.22;2.65;;;23.80;59.80;;;;;;5023273;28;20029;-83
2021/06/29 02:44:34;;;;;;;3.33;2.10;;;23.70;59.70;;;;;;5040055;28;20039;-82
2021/06/29 02:47:00;;;;;;;2.20;2.00;;;23.70;59.70;;;;;;5030532;28;20028;-82
2021/06/29 02:49:26;;;;;;;3.63;1.95;;;23.60;59.40;;;;;;5038922;28;20026;-82
2021/06/29 02:51:52;;;;;;;4.22;2.25;;;23.60;59.30;;;;;;5026773;28;20032;-82
2021/06/29 02:54:17;;;;;;;6.05;2.13;;;23.60;59.20;;;;;;5036998;28;20505;-83
2021/06/29 02:56:43;;;;;;;2.85;1.75;;;23.60;59.20;;;;;;5023650;28;20037;-83
2021/06/29 02:59:14;;;;;;;3.25;2.20;;;23.50;59.10;;;;;;5044797;28;20033;-83
2021/06/29 03:01:41;;;;;;;3.88;2.13;;;23.60;58.90;;;;;;5037784;28;20029;-83
2021/06/29 03:04:08;;;;;;;4.22;2.10;;;23.60;58.90;;;;;;5029677;28;20045;-83
2021/06/29 03:06:34;;;;;;;2.40;1.75;;;23.60;58.90;;;;;;5040765;28;20424;-83
2021/06/29 03:09:01;;;;;;;4.63;1.65;;;23.60;58.70;;;;;;5041814;28;20033;-83
2021/06/29 03:11:27;;;;;;;5.38;1.90;;;23.50;58.50;;;;;;5029807;28;20048;-83
2021/06/29 03:13:53;;;;;;;4.22;1.80;;;23.50;58.60;;;;;;5048093;28;20397;-83
2021/06/29 03:16:19;;;;;;;2.42;1.70;;;23.50;58.60;;;;;;5043149;28;20437;-83
2021/06/29 03:18:45;;;;;;;3.58;1.65;;;23.50;58.60;;;;;;5041723;28;20053;-83
2021/06/29 03:21:11;;;;;;;2.15;1.90;;;23.50;58.60;;;;;;5026494;28;20029;-83
2021/06/29 03:23:38;;;;;;;3.13;2.08;;;23.50;58.40;;;;;;5043130;28;20017;-83
2021/06/29 03:26:05;;;;;;;2.95;1.90;;;23.50;58.50;;;;;;5027582;28;20405;-83
2021/06/29 03:28:31;;;;;;;2.33;1.48;;;23.50;58.70;;;;;;5042663;28;20060;-83
2021/06/29 03:30:56;;;;;;;1.73;1.60;;;23.40;58.80;;;;;;5030027;28;20052;-83
2021/06/29 03:33:22;;;;;;;1.90;1.70;;;23.40;58.40;;;;;;5019307;28;20128;-83
2021/06/29 03:35:48;;;;;;;2.85;1.40;;;23.40;58.40;;;;;;5030585;28;20048;-83
2021/06/29 03:38:14;;;;;;;4.60;1.80;;;23.30;58.20;;;;;;5046755;28;20034;-83
2021/06/29 03:40:39;;;;;;;4.57;1.85;;;23.40;58.30;;;;;;5020964;28;20057;-83
2021/06/29 03:43:05;;;;;;;3.85;1.50;;;23.40;58.30;;;;;;5044058;28;20029;-83
2021/06/29 03:45:31;;;;;;;5.88;1.65;;;23.40;58.30;;;;;;5047195;28;20024;-83
2021/06/29 03:47:57;;;;;;;3.20;1.92;;;23.40;58.30;;;;;;5045126;28;20108;-83
2021/06/29 03:50:25;;;;;;;4.57;1.90;;;23.40;58.30;;;;;;5024023;28;20071;-82
2021/06/29 03:52:50;;;;;;;1.90;1.60;;;23.40;58.20;;;;;;5046323;28;20469;-83
2021/06/29 03:55:16;;;;;;;4.82;2.25;;;23.30;58.20;;;;;;5034044;28;20056;-84
2021/06/29 03:57:42;;;;;;;4.05;2.20;;;23.30;58.00;;;;;;5032686;28;20379;-83
2021/06/29 04:00:09;;;;;;;3.22;2.00;;;23.30;58.00;;;;;;5025638;28;20029;-84
2021/06/29 04:02:36;;;;;;;2.17;1.85;;;23.30;58.10;;;;;;5044106;28;20067;-83
2021/06/29 04:05:02;;;;;;;4.63;1.90;;;23.20;58.20;;;;;;5046527;28;20021;-83
2021/06/29 04:07:28;;;;;;;2.40;1.50;;;23.20;58.30;;;;;;5052751;28;20067;-83
2021/06/29 04:09:54;;;;;;;2.70;1.85;;;23.20;58.30;;;;;;5048653;28;20497;-84
2021/06/29 04:12:20;;;;;;;4.38;2.17;;;23.30;58.20;;;;;;5034798;28;20036;-83
2021/06/29 04:14:47;;;;;;;4.40;1.98;;;23.20;58.30;;;;;;5049449;28;20493;-83
2021/06/29 04:17:13;;;;;;;2.17;1.58;;;23.30;58.20;;;;;;5040809;28;20021;-83
2021/06/29 04:19:40;;;;;;;7.47;1.92;;;23.30;58.20;;;;;;5034713;28;20045;-83
2021/06/29 04:22:07;;;;;;;4.13;1.73;;;23.30;58.10;;;;;;5024085;28;20034;-83
2021/06/29 04:24:35;;;;;;;2.47;1.85;;;23.40;58.10;;;;;;5044724;28;20104;-83
2021/06/29 04:27:04;;;;;;;2.58;1.88;;;23.30;57.90;;;;;;5029518;28;20539;-83
2021/06/29 04:29:29;;;;;;;3.20;1.90;;;23.30;58.00;;;;;;5040949;28;20032;-83
2021/06/29 04:31:55;;;;;;;3.17;1.67;;;23.40;58.00;;;;;;5051958;28;20366;-83
2021/06/29 04:34:22;;;;;;;2.38;1.45;;;23.40;58.10;;;;;;5033179;28;20040;-84
2021/06/29 04:36:48;;;;;;;2.70;1.75;;;23.40;58.20;;;;;;5049356;28;20425;-84
2021/06/29 04:39:14;;;;;;;1.98;1.63;;;23.40;58.30;;;;;;5043227;28;20339;-84
2021/06/29 04:41:40;;;;;;;2.25;1.58;;;23.40;58.50;;;;;;5041133;28;20036;-83
2021/06/29 04:44:06;;;;;;;2.72;1.95;;;23.40;58.60;;;;;;5044550;28;20493;-84
2021/06/29 04:46:32;;;;;;;3.92;1.60;;;23.40;58.60;;;;;;5044384;28;20017;-84
2021/06/29 04:48:58;;;;;;;2.08;1.75;;;23.40;58.60;;;;;;5051966;28;20458;-84
2021/06/29 04:51:24;;;;;;;2.85;1.67;;;23.40;58.80;;;;;;5030114;28;20021;-84
2021/06/29 04:53:50;;;;;;;2.13;1.58;;;23.50;59.00;;;;;;5049999;28;20033;-84
2021/06/29 04:56:21;;;;;;;2.25;1.35;;;23.50;59.30;;;;;;5049449;28;20036;-84
2021/06/29 04:58:57;;;;;;;3.78;1.77;;;23.40;59.50;;;;;;5044842;28;20024;-83
2021/06/29 05:01:24;;;;;;;3.33;1.67;;;23.40;59.60;;;;;;5048311;28;20486;-84
2021/06/29 05:03:50;;;;;;;5.57;2.47;;;23.50;59.60;;;;;;5044221;28;20037;-84
2021/06/29 05:06:16;;;;;;;3.90;1.75;;;23.40;59.80;;;;;;5024281;28;20048;-84
2021/06/29 05:08:43;;;;;;;3.83;2.10;;;23.40;60.20;;;;;;5002002;28;20032;-84
2021/06/29 05:11:09;;;;;;;2.42;1.90;;;23.30;60.70;;;;;;5026855;28;20076;-84
2021/06/29 05:13:35;;;;;;;9.00;3.05;;;23.30;61.00;;;;;;5010261;28;20029;-84
2021/06/29 05:16:01;;;;;;;21.25;4.50;;;23.30;61.30;;;;;;5006796;28;20031;-84
2021/06/29 05:18:28;;;;;;;17.70;5.00;;;23.30;61.60;;;;;;5015463;28;20037;-84
2021/06/29 05:20:57;;;;;;;5.18;2.58;;;23.40;61.60;;;;;;5041335;28;20557;-84
2021/06/29 05:23:23;;;;;;;20.83;5.80;;;23.40;61.00;;;;;;5027855;28;20438;-84
2021/06/29 05:25:49;;;;;;;6.90;2.30;;;23.40;61.00;;;;;;5033141;28;20021;-83
2021/06/29 05:28:22;;;;;;;13.55;4.35;;;23.40;61.40;;;;;;5011446;28;20117;-84
2021/06/29 05:30:48;;;;;;;11.18;2.53;;;23.40;61.80;;;;;;5010335;28;20407;-84
2021/06/29 05:33:18;;;;;;;5.45;2.42;;;23.40;62.10;;;;;;5008199;28;20075;-83
2021/06/29 05:35:44;;;;;;;5.68;3.00;;;23.30;62.40;;;;;;5008500;28;20025;-84
2021/06/29 05:38:10;;;;;;;5.13;2.60;;;23.30;62.90;;;;;;5013000;28;20543;-83
2021/06/29 05:40:37;;;;;;;6.97;3.03;;;23.20;63.70;;;;;;5007130;28;20026;-84
2021/06/29 05:43:03;;;;;;;7.10;2.83;;;23.10;63.70;;;;;;5034008;28;20374;-84
2021/06/29 05:45:28;;;;;;;4.40;2.92;;;23.10;64.00;;;;;;5043470;28;20021;-84
2021/06/29 05:47:55;;;;;;;5.93;2.75;;;23.10;63.90;;;;;;5012891;28;20026;-84
2021/06/29 05:50:22;;;;;;;7.55;2.75;;;23.20;63.40;;;;;;5031201;28;20021;-84
2021/06/29 05:52:47;;;;;;;7.75;2.95;;;23.10;63.20;;;;;;5033686;28;20108;-84
2021/06/29 05:55:14;;;;;;;7.07;3.05;;;23.10;63.40;;;;;;5013000;28;20112;-84
2021/06/29 05:57:40;;;;;;;7.18;3.25;;;23.00;63.70;;;;;;5014210;28;20030;-84
2021/06/29 06:00:11;;;;;;;6.88;2.88;;;23.00;64.00;;;;;;5021723;28;20552;-84
2021/06/29 06:02:38;;;;;;;4.05;2.75;;;22.90;64.50;;;;;;5024598;28;20045;-84
2021/06/29 06:05:05;;;;;;;3.17;2.03;;;22.90;64.50;;;;;;5049063;28;20028;-84
2021/06/29 06:07:31;;;;;;;3.10;2.08;;;22.90;64.50;;;;;;5042498;28;20029;-84
2021/06/29 06:09:57;;;;;;;2.83;2.03;;;22.90;64.50;;;;;;5041749;28;20431;-84
2021/06/29 06:12:23;;;;;;;2.42;1.90;;;22.80;64.70;;;;;;5043287;28;20585;-84
2021/06/29 06:14:50;;;;;;;6.25;2.38;;;22.80;64.90;;;;;;5048325;28;20021;-83
2021/06/29 06:17:15;;;;;;;5.43;2.38;;;22.80;65.00;;;;;;5047164;28;20021;-84
2021/06/29 06:19:41;;;;;;;3.28;2.00;;;22.80;64.80;;;;;;5053341;28;20043;-84
2021/06/29 06:22:07;;;;;;;3.47;1.90;;;22.80;65.70;;;;;;5050201;28;20482;-84
2021/06/29 06:24:32;;;;;;;7.30;3.50;;;22.80;65.50;;;;;;5057108;28;20044;-84
2021/06/29 06:26:58;;;;;;;8.10;3.40;;;22.70;66.00;;;;;;5050005;28;20512;-83
2021/06/29 06:29:24;;;;;;;4.63;2.85;;;22.70;66.40;;;;;;5045123;28;20029;-84
2021/06/29 06:31:55;;;;;;;5.40;2.80;;;22.70;66.80;;;;;;5051896;28;20085;-84
2021/06/29 06:34:22;;;;;;;5.53;2.60;;;22.60;67.00;;;;;;5047010;28;20071;-84
2021/06/29 06:36:48;;;;;;;4.22;3.20;;;22.60;67.10;;;;;;5028110;28;20090;-84
2021/06/29 06:39:14;;;;;;;4.40;3.08;;;22.50;67.20;;;;;;5042098;28;20024;-84
2021/06/29 06:41:40;;;;;;;6.63;3.05;;;22.50;67.40;;;;;;5038205;28;20120;-84
2021/06/29 06:44:06;;;;;;;9.07;3.30;;;22.60;67.60;;;;;;5033316;28;20600;-84
2021/06/29 06:46:32;;;;;;;5.15;2.72;;;22.60;67.80;;;;;;5038806;28;20055;-84
2021/06/29 06:48:57;;;;;;;4.22;2.88;;;22.50;67.90;;;;;;5044121;28;20021;-84
2021/06/29 06:51:23;;;;;;;4.35;3.13;;;22.40;68.20;;;;;;5064487;28;20032;-84
2021/06/29 06:53:50;;;;;;;4.78;2.83;;;22.40;68.40;;;;;;5061609;28;20040;-84
2021/06/29 06:56:16;;;;;;;6.90;2.58;;;22.30;68.30;;;;;;5052216;28;20026;-84
2021/06/29 06:58:44;;;;;;;3.97;2.70;;;22.30;68.40;;;;;;5027069;28;20025;-84
2021/06/29 07:01:11;;;;;;;4.45;3.05;;;22.30;68.40;;;;;;5037677;28;20490;-84
2021/06/29 07:03:37;;;;;;;5.93;2.15;;;22.40;68.20;;;;;;5031791;28;20039;-84
2021/06/29 07:06:05;;;;;;;4.65;2.58;;;22.30;67.70;;;;;;5038392;28;20032;-84
2021/06/29 07:08:30;;;;;;;9.25;3.10;;;22.40;67.80;;;;;;5048549;28;20111;-84
2021/06/29 07:10:57;;;;;;;8.52;4.15;;;22.50;67.90;;;;;;5030713;28;20045;-84
2021/06/29 07:13:23;;;;;;;6.90;2.78;;;22.50;68.20;;;;;;5021907;28;20029;-84
2021/06/29 07:15:49;;;;;;;5.00;2.72;;;22.50;69.20;;;;;;5047249;28;20031;-84
2021/06/29 07:18:17;;;;;;;4.80;1.60;;;22.70;68.90;;;;;;5019872;28;20558;-84
2021/06/29 07:20:44;;;;;;;2.10;1.42;;;22.80;68.00;;;;;;5041061;28;20409;-84
2021/06/29 07:23:11;;;;;;;3.13;1.80;;;22.80;67.20;;;;;;5067400;28;20040;-84
2021/06/29 07:25:38;;;;;;;4.75;2.80;;;22.90;66.90;;;;;;5035927;28;20033;-84
2021/06/29 07:28:04;;;;;;;4.65;2.50;;;22.80;66.80;;;;;;5036128;28;20029;-84
2021/06/29 07:30:30;;;;;;;7.85;2.70;;;22.80;67.30;;;;;;5046759;28;20088;-84
2021/06/29 07:32:58;;;;;;;5.30;2.90;;;23.10;67.60;;;;;;5050019;28;20029;-84
2021/06/29 07:35:25;;;;;;;6.25;2.25;;;23.40;67.30;;;;;;5056334;28;20017;-84
2021/06/29 07:37:51;;;;;;;4.07;2.30;;;23.50;66.70;;;;;;5037677;28;20362;-84
2021/06/29 07:40:17;;;;;;;8.10;2.83;;;23.60;66.00;;;;;;5057400;28;20100;-84
2021/06/29 07:42:48;;;;;;;2.85;2.05;;;23.70;65.20;;;;;;5046334;28;20619;-84
2021/06/29 07:46:06;;;;;;;6.97;2.70;;;23.70;65.30;;;;;;5042282;28;20052;-84
2021/06/29 07:48:34;;;;;;;4.53;2.03;;;23.80;64.10;;;;;;5041069;28;20021;-84
2021/06/29 07:51:00;;;;;;;3.05;2.05;;;23.70;64.10;;;;;;5049379;28;20091;-84
2021/06/29 07:53:25;;;;;;;4.30;2.58;;;23.80;63.90;;;;;;5043207;28;20437;-84
2021/06/29 07:55:52;;;;;;;2.80;2.10;;;24.00;63.70;;;;;;5060296;28;20020;-84
2021/06/29 07:58:18;;;;;;;7.90;2.63;;;24.20;64.30;;;;;;5035722;28;20029;-84
2021/06/29 08:00:45;;;;;;;2.85;2.53;;;24.30;63.40;;;;;;5050446;28;20885;-84
2021/06/29 08:03:11;;;;;;;3.85;2.47;;;24.30;62.60;;;;;;5056865;28;20510;-83
2021/06/29 08:05:36;;;;;;;2.88;2.30;;;24.40;62.50;;;;;;5049145;28;20025;-84
2021/06/29 08:08:05;;;;;;;3.55;2.60;;;24.50;62.30;;;;;;5045206;28;20013;-84
2021/06/29 08:10:31;;;;;;;2.78;2.10;;;24.60;62.10;;;;;;5063443;28;20028;-84
2021/06/29 08:12:58;;;;;;;4.60;1.92;;;24.70;62.10;;;;;;5065228;28;20025;-84
2021/06/29 08:15:24;;;;;;;4.70;2.05;;;24.90;61.80;;;;;;5034404;28;20044;-84
2021/06/29 08:17:50;;;;;;;3.00;2.05;;;25.10;61.10;;;;;;5066395;28;20020;-84
2021/06/29 08:20:20;;;;;;;3.28;2.22;;;25.20;60.60;;;;;;5048222;28;20029;-84
2021/06/29 08:22:47;;;;;;;2.08;1.83;;;25.40;60.50;;;;;;5050766;28;19916;-84
2021/06/29 08:25:13;;;;;;;5.38;2.00;;;25.50;59.80;;;;;;5042544;28;20057;-84
2021/06/29 08:27:40;;;;;;;2.95;2.03;;;25.70;59.30;;;;;;5058250;28;20024;-84
2021/06/29 08:30:10;;;;;;;2.45;1.80;;;25.80;58.80;;;;;;5070847;28;20481;-84
2021/06/29 08:32:38;;;;;;;3.05;2.13;;;25.80;58.70;;;;;;5071443;28;20029;-84
2021/06/29 08:35:09;;;;;;;3.08;2.00;;;25.70;58.00;;;;;;5057876;28;20028;-84
2021/06/29 08:37:36;;;;;;;3.85;1.98;;;25.60;57.40;;;;;;5033949;28;20449;-84
2021/06/29 08:40:05;;;;;;;2.45;1.80;;;25.60;57.60;;;;;;5039512;28;20040;-84
2021/06/29 08:42:33;;;;;;;2.45;1.42;;;25.70;57.90;;;;;;5053797;28;20025;-84
2021/06/29 08:45:00;;;;;;;3.67;1.33;;;25.80;57.10;;;;;;5037150;28;20025;-84
2021/06/29 08:47:26;;;;;;;1.65;1.45;;;25.80;57.00;;;;;;5035468;28;20702;-84
2021/06/29 08:49:51;;;;;;;1.65;1.30;;;25.80;57.00;;;;;;5055650;28;20024;-84
2021/06/29 08:52:17;;;;;;;2.38;1.50;;;25.90;56.90;;;;;;5035374;28;20497;-84
2021/06/29 08:54:44;;;;;;;2.25;1.55;;;26.00;57.10;;;;;;5036517;28;20437;-83
2021/06/29 08:57:10;;;;;;;1.38;1.20;;;26.10;56.80;;;;;;5026494;28;20043;-84
2021/06/29 08:59:36;;;;;;;1.77;1.65;;;26.20;56.60;;;;;;5051274;28;20381;-84
2021/06/29 09:02:03;;;;;;;2.22;1.48;;;26.30;56.40;;;;;;5019886;28;20030;-84
2021/06/29 09:04:45;;;;;;;1.77;1.30;;;26.30;55.90;;;;;;5017049;28;20065;-84
2021/06/29 09:07:25;;;;;;;2.70;1.73;;;26.40;55.50;;;;;;5045616;28;20112;-84
2021/06/29 09:09:55;;;;;;;4.50;1.80;;;26.50;55.40;;;;;;5035745;28;20029;-84
2021/06/29 09:12:48;;;;;;;1.63;1.52;;;26.60;54.90;;;;;;5051731;28;20916;-84
2021/06/29 09:15:23;;;;;;;3.15;1.50;;;26.70;54.60;;;;;;5049341;28;20079;-84
2021/06/29 09:17:50;;;;;;;3.55;1.40;;;26.80;54.40;;;;;;5020849;28;20487;-84
2021/06/29 09:20:25;;;;;;;8.40;1.77;;;26.80;54.40;;;;;;5037730;28;20121;-84
2021/06/29 09:22:51;;;;;;;3.40;1.65;;;26.90;53.90;;;;;;5054373;28;20040;-84
2021/06/29 09:25:25;;;;;;;4.55;1.70;;;27.00;53.80;;;;;;5059326;28;20029;-84
2021/06/29 09:27:52;;;;;;;3.45;1.85;;;27.10;53.50;;;;;;5042645;28;20023;-84
2021/06/29 09:30:38;;;;;;;4.13;2.05;;;27.10;53.20;;;;;;5043755;28;20025;-84
2021/06/29 09:33:33;;;;;;;1.90;1.67;;;27.10;52.60;;;;;;5063304;28;20060;-84
2021/06/29 09:36:01;;;;;;;3.30;1.73;;;27.20;52.70;;;;;;5041881;28;20032;-83
2021/06/29 09:38:32;;;;;;;4.63;1.70;;;27.40;52.90;;;;;;5053234;28;20016;-83
2021/06/29 09:41:08;;;;;;;6.15;1.75;;;27.40;52.50;;;;;;5051530;28;20034;-82
2021/06/29 09:43:40;;;;;;;4.72;1.60;;;27.30;52.20;;;;;;5053991;28;20017;-82
2021/06/29 09:46:08;;;;;;;2.75;1.83;;;27.40;52.20;;;;;;5060822;28;20101;-82
2021/06/29 09:48:38;;;;;;;6.05;1.42;;;27.50;52.30;;;;;;5042707;28;20028;-83
2021/06/29 09:51:18;;;;;;;1.35;1.17;;;27.60;52.20;;;;;;5048326;28;20493;-82
2021/06/29 09:53:51;;;;;;;1.55;1.30;;;27.70;51.90;;;;;;5064576;28;20031;-84
2021/06/29 09:56:20;;;;;;;1.40;1.30;;;27.80;51.80;;;;;;5052906;28;20025;-83
2021/06/29 09:58:51;;;;;;;1.45;1.25;;;27.80;51.70;;;;;;5068111;28;20021;-83
2021/06/29 10:01:18;;;;;;;2.78;1.65;;;27.80;51.70;;;;;;5037177;28;20029;-84
2021/06/29 10:03:45;;;;;;;1.98;1.40;;;27.70;51.30;;;;;;5046659;28;20059;-83
2021/06/29 10:06:14;;;;;;;1.92;1.38;;;27.70;51.40;;;;;;5071959;28;20056;-84
2021/06/29 10:08:42;;;;;;;2.92;1.35;;;27.80;51.50;;;;;;5042925;28;20037;-83
2021/06/29 10:11:11;;;;;;;2.92;2.25;;;27.90;51.20;;;;;;5047220;28;20032;-83
2021/06/29 10:14:02;;;;;;;2.35;1.75;;;28.00;50.80;;;;;;5041918;28;20037;-84
2021/06/29 10:16:34;;;;;;;1.70;1.60;;;27.90;50.20;;;;;;5047030;28;20552;-83
2021/06/29 10:19:13;;;;;;;5.28;1.80;;;27.90;50.00;;;;;;5036187;28;20031;-83
2021/06/29 10:21:48;;;;;;;4.68;1.15;;;27.90;50.00;;;;;;5059159;28;20409;-83
2021/06/29 10:24:16;;;;;;;5.78;1.50;;;28.00;50.50;;;;;;5070992;28;20055;-83
2021/06/29 10:26:45;;;;;;;1.85;1.10;;;28.10;50.80;;;;;;5044359;28;20608;-83
2021/06/29 10:29:13;;;;;;;2.45;1.60;;;28.20;50.80;;;;;;5042903;28;20043;-83
2021/06/29 10:31:42;;;;;;;2.10;1.40;;;28.30;50.40;;;;;;5045428;28;20032;-83
2021/06/29 10:34:09;;;;;;;2.22;1.48;;;28.40;50.40;;;;;;5036978;28;20031;-84
2021/06/29 10:36:39;;;;;;;1.70;1.50;;;28.40;50.50;;;;;;5032605;28;20536;-83
2021/06/29 10:39:07;;;;;;;2.90;1.80;;;28.40;50.60;;;;;;5051048;28;20052;-84
2021/06/29 10:42:00;;;;;;;1.98;1.52;;;28.40;50.80;;;;;;5037342;28;20123;-83
2021/06/29 10:44:26;;;;;;;2.25;1.42;;;28.60;50.50;;;;;;5036726;28;20025;-83
2021/06/29 10:46:55;;;;;;;2.30;1.50;;;28.70;50.00;;;;;;5055708;28;20398;-83
2021/06/29 10:49:37;;;;;;;1.65;1.40;;;28.70;49.90;;;;;;5062362;28;20023;-83
2021/06/29 10:52:06;;;;;;;2.85;1.60;;;28.80;49.80;;;;;;5053707;28;20733;-83
2021/06/29 10:54:39;;;;;;;3.75;1.52;;;28.80;49.50;;;;;;5063109;28;20135;-83
2021/06/29 10:57:10;;;;;;;2.38;1.77;;;28.90;49.70;;;;;;5020010;28;20413;-83
2021/06/29 10:59:39;;;;;;;3.50;1.77;;;29.00;49.40;;;;;;5045898;28;20517;-83
2021/06/29 11:02:12;;;;;;;2.85;1.80;;;28.90;49.60;;;;;;5058552;28;20044;-83
2021/06/29 11:04:47;;;;;;;1.90;1.60;;;29.00;49.00;;;;;;5063272;28;20376;-83
2021/06/29 11:07:30;;;;;;;1.52;1.42;;;29.00;49.40;;;;;;5045087;28;20040;-83
2021/06/29 11:10:07;;;;;;;2.20;1.60;;;29.00;49.30;;;;;;5041305;28;20079;-83
2021/06/29 11:12:51;;;;;;;1.92;1.73;;;29.10;49.40;;;;;;5032975;28;20547;-83
2021/06/29 11:15:18;;;;;;;3.97;1.27;;;29.20;49.40;;;;;;5055444;28;20028;-83
2021/06/29 11:17:47;;;;;;;3.05;1.70;;;29.20;49.30;;;;;;5050712;28;20029;-83
2021/06/29 11:20:16;;;;;;;1.85;1.70;;;29.30;49.40;;;;;;5035442;28;20040;-83
2021/06/29 11:22:51;;;;;;;2.97;1.83;;;29.30;49.30;;;;;;5037076;28;20029;-83
2021/06/29 11:25:36;;;;;;;2.33;1.40;;;29.20;48.80;;;;;;5040178;28;20083;-83
2021/06/29 11:28:07;;;;;;;2.33;1.45;;;29.30;48.70;;;;;;5049614;28;20017;-83
2021/06/29 11:30:58;;;;;;;3.58;1.98;;;29.30;49.00;;;;;;5052415;28;20020;-84
2021/06/29 11:33:43;;;;;;;2.72;1.58;;;29.40;49.30;;;;;;5053409;28;20035;-83
2021/06/29 11:36:23;;;;;;;3.47;1.50;;;29.50;49.60;;;;;;5037141;28;20028;-83
2021/06/29 11:38:51;;;;;;;2.78;1.60;;;29.50;49.20;;;;;;5046737;28;20018;-83
2021/06/29 11:41:32;;;;;;;2.03;1.20;;;29.50;48.80;;;;;;5039943;28;20087;-83
2021/06/29 11:44:07;;;;;;;2.42;1.65;;;29.50;48.60;;;;;;5038447;28;20127;-83
2021/06/29 11:46:51;;;;;;;9.18;1.95;;;29.60;49.00;;;;;;5057703;28;20376;-83
2021/06/29 11:49:34;;;;;;;3.45;1.50;;;29.60;47.90;;;;;;5042514;28;20461;-83
2021/06/29 11:52:17;;;;;;;2.30;1.60;;;29.70;48.30;;;;;;5050323;28;20031;-83
2021/06/29 11:55:19;;;;;;;2.30;2.08;;;29.80;48.10;;;;;;5033773;28;20485;-84
2021/06/29 11:57:50;;;;;;;3.17;1.77;;;29.80;47.10;;;;;;5030534;28;20057;-83
2021/06/29 12:00:35;;;;;;;1.63;1.52;;;29.50;47.80;;;;;;5050766;28;20025;-83
2021/06/29 12:03:13;;;;;;;3.00;1.92;;;29.80;48.60;;;;;;5023764;28;20702;-83
2021/06/29 12:05:40;;;;;;;2.38;1.42;;;29.90;47.80;;;;;;5014498;28;20080;-84
2021/06/29 12:08:11;;;;;;;3.55;1.30;;;29.90;48.00;;;;;;5034562;28;20021;-84
2021/06/29 12:10:37;;;;;;;4.15;1.73;;;29.90;47.80;;;;;;5028141;28;20057;-84
2021/06/29 12:13:09;;;;;;;1.75;1.50;;;29.90;47.70;;;;;;5041299;28;20105;-84
2021/06/29 12:15:40;;;;;;;2.63;1.80;;;30.00;47.50;;;;;;5014182;28;20033;-84
2021/06/29 12:18:11;;;;;;;3.60;1.40;;;30.00;47.30;;;;;;5010171;28;20036;-84
2021/06/29 12:20:53;;;;;;;3.63;1.70;;;29.80;47.20;;;;;;5012953;28;20481;-83
2021/06/29 12:23:21;;;;;;;;;;;29.70;47.30;;;;;;5028601;28;20064;-83
2021/06/29 12:25:49;;;;;;;1.67;1.58;;;29.50;47.70;;;;;;5032244;28;20291;-84
2021/06/29 12:28:17;;;;;;;1.73;1.60;;;29.40;47.50;;;;;;5017423;28;20465;-83
2021/06/29 12:30:54;;;;;;;3.33;1.83;;;29.10;47.60;;;;;;5034152;28;20049;-84
2021/06/29 12:33:36;;;;;;;3.55;1.65;;;29.10;48.10;;;;;;5038147;28;20053;-84
2021/06/29 12:36:12;;;;;;;3.83;2.20;;;28.90;48.30;;;;;;5011967;28;20022;-84
2021/06/29 12:38:53;;;;;;;2.65;1.45;;;28.80;48.30;;;;;;5016510;28;20041;-84
2021/06/29 12:41:23;;;;;;;2.30;1.58;;;28.60;48.50;;;;;;5018916;28;20231;-83
2021/06/29 12:44:00;;;;;;;4.35;2.17;;;28.40;48.70;;;;;;5035900;28;20458;-82
2021/06/29 12:46:38;;;;;;;6.78;1.60;;;28.40;48.80;;;;;;5016518;28;20021;-85
2021/06/29 12:49:20;;;;;;;2.70;2.17;;;28.40;48.70;;;;;;5016393;28;20706;-84
2021/06/29 12:51:47;;;;;;;;;;;28.50;50.10;;;;;;5041244;28;20343;-84
2021/06/29 12:54:18;;;;;;;7.05;2.15;;;28.60;49.90;;;;;;5027581;28;19999;-84
2021/06/29 12:56:53;;;;;;;2.63;2.03;;;28.90;50.10;;;;;;5026261;28;20028;-84
2021/06/29 12:59:22;;;;;;;2.75;1.80;;;29.10;49.40;;;;;;5013332;28;20030;-84